sensor_id;sensor_type;location;lat;lon;timestamp;P1;durP1;ratioP1;P2;durP2;ratioP2
29210;SDS011;16250;49.932;10.980;2022-08-18T14:52:39;9.23;;;8.30;;
29210;SDS011;16250;49.932;10.980;2022-08-18T14:55:06;8.93;;;8.02;;
29210;SDS011;16250;49.932;10.980;2022-08-18T14:57:33;8.90;;;8.02;;
29210;SDS011;16250;49.932;10.980;2022-08-18T14:59:58;8.98;;;7.30;;
29210;SDS011;16250;49.932;10.980;2022-08-18T15:02:24;8.13;;;7.32;;
29210;SDS011;16250;49.932;10.980;2022-08-18T15:04:49;10.10;;;7.85;;
29210;SDS011;16250;49.932;10.980;2022-08-18T15:07:15;11.38;;;7.95;;
29210;SDS011;16250;49.932;10.980;2022-08-18T15:09:40;8.75;;;7.57;;
29210;SDS011;16250;49.932;10.980;2022-08-18T15:12:06;9.27;;;7.63;;
29210;SDS011;16250;49.932;10.980;2022-08-18T15:14:33;8.57;;;7.78;;
29210;SDS011;16250;49.932;10.980;2022-08-18T15:17:02;9.20;;;7.78;;
29210;SDS011;16250;49.932;10.980;2022-08-18T15:19:30;8.00;;;7.30;;
29210;SDS011;16250;49.932;10.980;2022-08-18T15:21:56;8.95;;;7.30;;
29210;SDS011;16250;49.932;10.980;2022-08-18T15:24:40;7.32;;;6.80;;
29210;SDS011;16250;49.932;10.980;2022-08-18T15:27:29;8.63;;;7.72;;
29210;SDS011;16250;49.932;10.980;2022-08-18T15:29:56;8.43;;;7.50;;
29210;SDS011;16250;49.932;10.980;2022-08-18T15:32:22;8.07;;;7.38;;
29210;SDS011;16250;49.932;10.980;2022-08-18T15:34:48;8.23;;;7.50;;
29210;SDS011;16250;49.932;10.980;2022-08-18T15:37:14;8.60;;;7.80;;
29210;SDS011;16250;49.932;10.980;2022-08-18T15:39:41;10.68;;;7.95;;
29210;SDS011;16250;49.932;10.980;2022-08-18T15:42:08;10.95;;;7.78;;
29210;SDS011;16250;49.932;10.980;2022-08-18T15:44:34;7.95;;;7.25;;
29210;SDS011;16250;49.932;10.980;2022-08-18T15:47:00;22.48;;;8.75;;
29210;SDS011;16250;49.932;10.980;2022-08-18T15:49:28;13.35;;;7.80;;
29210;SDS011;16250;49.932;10.980;2022-08-18T15:51:54;8.25;;;7.57;;
29210;SDS011;16250;49.932;10.980;2022-08-18T15:54:20;8.05;;;7.22;;
29210;SDS011;16250;49.932;10.980;2022-08-18T15:56:46;8.95;;;8.07;;
29210;SDS011;16250;49.932;10.980;2022-08-18T15:59:11;8.50;;;7.57;;
29210;SDS011;16250;49.932;10.980;2022-08-18T16:01:37;8.43;;;7.60;;
29210;SDS011;16250;49.932;10.980;2022-08-18T16:04:03;9.18;;;8.15;;
29210;SDS011;16250;49.932;10.980;2022-08-18T16:06:31;8.63;;;7.63;;
29210;SDS011;16250;49.932;10.980;2022-08-18T16:08:59;8.48;;;7.65;;
29210;SDS011;16250;49.932;10.980;2022-08-18T16:11:25;8.52;;;7.70;;
29210;SDS011;16250;49.932;10.980;2022-08-18T16:13:51;8.85;;;8.05;;
29210;SDS011;16250;49.932;10.980;2022-08-18T16:16:18;8.63;;;7.72;;
29210;SDS011;16250;49.932;10.980;2022-08-18T16:18:46;8.88;;;8.07;;
29210;SDS011;16250;49.932;10.980;2022-08-18T16:21:21;8.98;;;8.10;;
29210;SDS011;16250;49.932;10.980;2022-08-18T16:23:48;8.02;;;7.20;;
29210;SDS011;16250;49.932;10.980;2022-08-18T16:26:16;8.25;;;7.55;;
29210;SDS011;16250;49.932;10.980;2022-08-18T16:28:44;8.35;;;7.55;;
29210;SDS011;16250;49.932;10.980;2022-08-18T16:31:12;9.27;;;7.90;;
29210;SDS011;16250;49.932;10.980;2022-08-18T16:33:40;8.80;;;8.00;;
29210;SDS011;16250;49.932;10.980;2022-08-18T16:36:09;7.88;;;7.07;;
29210;SDS011;16250;49.932;10.980;2022-08-18T16:38:36;10.80;;;8.02;;
29210;SDS011;16250;49.932;10.980;2022-08-18T16:41:08;8.63;;;7.30;;
29210;SDS011;16250;49.932;10.980;2022-08-18T16:43:36;8.38;;;7.60;;
29210;SDS011;16250;49.932;10.980;2022-08-18T16:46:02;8.32;;;7.57;;
29210;SDS011;16250;49.932;10.980;2022-08-18T16:48:32;8.38;;;7.68;;
29210;SDS011;16250;49.932;10.980;2022-08-18T16:50:58;8.15;;;7.35;;
29210;SDS011;16250;49.932;10.980;2022-08-18T16:53:24;10.35;;;7.63;;
29210;SDS011;16250;49.932;10.980;2022-08-18T16:55:49;10.30;;;7.65;;
29210;SDS011;16250;49.932;10.980;2022-08-18T16:58:15;8.77;;;8.07;;
29210;SDS011;16250;49.932;10.980;2022-08-18T17:00:59;8.57;;;7.68;;
29210;SDS011;16250;49.932;10.980;2022-08-18T17:03:45;9.77;;;7.20;;
29210;SDS011;16250;49.932;10.980;2022-08-18T17:06:29;8.63;;;6.93;;
29210;SDS011;16250;49.932;10.980;2022-08-18T17:08:55;8.23;;;7.40;;
29210;SDS011;16250;49.932;10.980;2022-08-18T17:11:21;8.80;;;7.95;;
29210;SDS011;16250;49.932;10.980;2022-08-18T17:13:51;7.97;;;7.20;;
29210;SDS011;16250;49.932;10.980;2022-08-18T17:16:19;9.60;;;7.88;;
29210;SDS011;16250;49.932;10.980;2022-08-18T17:18:46;8.15;;;7.43;;
29210;SDS011;16250;49.932;10.980;2022-08-18T17:21:15;9.48;;;8.02;;
29210;SDS011;16250;49.932;10.980;2022-08-18T17:23:42;9.90;;;7.72;;
29210;SDS011;16250;49.932;10.980;2022-08-18T17:28:59;8.50;;;7.75;;
29210;SDS011;16250;49.932;10.980;2022-08-18T17:31:29;8.10;;;7.38;;
29210;SDS011;16250;49.932;10.980;2022-08-18T17:33:56;8.10;;;7.30;;
29210;SDS011;16250;49.932;10.980;2022-08-18T17:36:31;8.70;;;7.80;;
29210;SDS011;16250;49.932;10.980;2022-08-18T17:39:03;8.68;;;7.88;;
29210;SDS011;16250;49.932;10.980;2022-08-18T17:41:31;9.77;;;8.77;;
29210;SDS011;16250;49.932;10.980;2022-08-18T17:44:18;11.05;;;7.47;;
29210;SDS011;16250;49.932;10.980;2022-08-18T17:46:43;9.52;;;8.25;;
29210;SDS011;16250;49.932;10.980;2022-08-18T17:49:31;9.35;;;8.13;;
29210;SDS011;16250;49.932;10.980;2022-08-18T17:52:19;9.05;;;7.90;;
29210;SDS011;16250;49.932;10.980;2022-08-18T17:54:48;9.57;;;8.25;;
29210;SDS011;16250;49.932;10.980;2022-08-18T17:57:24;10.50;;;8.75;;
29210;SDS011;16250;49.932;10.980;2022-08-18T18:02:30;12.55;;;8.18;;
29210;SDS011;16250;49.932;10.980;2022-08-18T18:05:01;13.50;;;8.45;;
29210;SDS011;16250;49.932;10.980;2022-08-18T18:07:38;16.00;;;8.07;;
29210;SDS011;16250;49.932;10.980;2022-08-18T18:10:21;15.15;;;8.32;;
29210;SDS011;16250;49.932;10.980;2022-08-18T18:13:06;14.27;;;8.10;;
29210;SDS011;16250;49.932;10.980;2022-08-18T18:15:52;14.23;;;8.43;;
29210;SDS011;16250;49.932;10.980;2022-08-18T18:18:25;15.90;;;8.35;;
29210;SDS011;16250;49.932;10.980;2022-08-18T18:21:02;12.52;;;8.50;;
29210;SDS011;16250;49.932;10.980;2022-08-18T18:23:46;11.50;;;8.48;;
29210;SDS011;16250;49.932;10.980;2022-08-18T18:28:46;10.82;;;8.40;;
29210;SDS011;16250;49.932;10.980;2022-08-18T18:31:17;13.93;;;8.63;;
29210;SDS011;16250;49.932;10.980;2022-08-18T18:33:54;12.70;;;8.52;;
29210;SDS011;16250;49.932;10.980;2022-08-18T18:36:30;11.07;;;8.70;;
29210;SDS011;16250;49.932;10.980;2022-08-18T18:39:14;12.65;;;8.90;;
29210;SDS011;16250;49.932;10.980;2022-08-18T18:41:43;14.30;;;9.03;;
29210;SDS011;16250;49.932;10.980;2022-08-18T18:44:11;13.90;;;9.23;;
29210;SDS011;16250;49.932;10.980;2022-08-18T18:50:06;13.10;;;9.10;;
29210;SDS011;16250;49.932;10.980;2022-08-18T18:55:29;10.77;;;9.77;;
29210;SDS011;16250;49.932;10.980;2022-08-18T19:00:55;11.88;;;9.45;;
29210;SDS011;16250;49.932;10.980;2022-08-18T19:11:41;10.70;;;9.60;;
29210;SDS011;16250;49.932;10.980;2022-08-18T19:14:33;10.90;;;9.80;;
29210;SDS011;16250;49.932;10.980;2022-08-18T19:19:51;10.18;;;9.05;;
29210;SDS011;16250;49.932;10.980;2022-08-18T19:27:50;9.88;;;8.88;;
29210;SDS011;16250;49.932;10.980;2022-08-18T19:30:20;11.20;;;9.68;;
29210;SDS011;16250;49.932;10.980;2022-08-18T19:32:49;12.63;;;9.60;;
29210;SDS011;16250;49.932;10.980;2022-08-18T19:35:40;12.60;;;9.27;;
29210;SDS011;16250;49.932;10.980;2022-08-18T19:40:53;10.75;;;9.85;;
29210;SDS011;16250;49.932;10.980;2022-08-18T19:45:57;10.50;;;9.48;;
29210;SDS011;16250;49.932;10.980;2022-08-18T20:04:37;10.43;;;9.43;;
29210;SDS011;16250;49.932;10.980;2022-08-18T20:08:26;12.15;;;9.80;;
29210;SDS011;16250;49.932;10.980;2022-08-18T20:18:36;13.07;;;11.30;;
29210;SDS011;16250;49.932;10.980;2022-08-18T20:24:15;14.98;;;13.48;;
29210;SDS011;16250;49.932;10.980;2022-08-18T20:41:24;16.58;;;14.80;;
29210;SDS011;16250;49.932;10.980;2022-08-18T20:49:13;17.63;;;15.15;;
29210;SDS011;16250;49.932;10.980;2022-08-18T20:52:09;16.05;;;14.55;;
29210;SDS011;16250;49.932;10.980;2022-08-18T20:54:58;16.65;;;14.95;;
29210;SDS011;16250;49.932;10.980;2022-08-18T20:57:30;17.05;;;15.32;;
29210;SDS011;16250;49.932;10.980;2022-08-18T21:02:49;22.50;;;14.60;;
29210;SDS011;16250;49.932;10.980;2022-08-18T21:05:24;23.85;;;17.35;;
29210;SDS011;16250;49.932;10.980;2022-08-18T21:10:54;26.85;;;21.58;;
29210;SDS011;16250;49.932;10.980;2022-08-18T21:13:28;26.33;;;21.45;;
29210;SDS011;16250;49.932;10.980;2022-08-18T21:16:11;22.10;;;19.08;;
29210;SDS011;16250;49.932;10.980;2022-08-18T21:18:38;21.35;;;18.88;;
29210;SDS011;16250;49.932;10.980;2022-08-18T21:21:15;23.63;;;21.25;;
29210;SDS011;16250;49.932;10.980;2022-08-18T21:23:49;26.13;;;22.85;;
29210;SDS011;16250;49.932;10.980;2022-08-18T21:26:21;30.48;;;25.98;;
29210;SDS011;16250;49.932;10.980;2022-08-18T21:28:51;26.55;;;23.88;;
29210;SDS011;16250;49.932;10.980;2022-08-18T21:31:31;30.67;;;27.48;;
29210;SDS011;16250;49.932;10.980;2022-08-18T21:34:45;30.63;;;27.42;;
29210;SDS011;16250;49.932;10.980;2022-08-18T21:37:00;31.92;;;25.77;;
29210;SDS011;16250;49.932;10.980;2022-08-18T21:39:30;24.10;;;21.63;;
29210;SDS011;16250;49.932;10.980;2022-08-18T21:41:56;25.23;;;21.92;;
29210;SDS011;16250;49.932;10.980;2022-08-18T21:47:07;28.27;;;21.88;;
29210;SDS011;16250;49.932;10.980;2022-08-18T21:52:25;30.90;;;27.17;;
29210;SDS011;16250;49.932;10.980;2022-08-18T21:54:53;29.88;;;26.08;;
29210;SDS011;16250;49.932;10.980;2022-08-18T21:57:24;31.77;;;27.65;;
29210;SDS011;16250;49.932;10.980;2022-08-18T22:02:48;31.50;;;28.17;;
29210;SDS011;16250;49.932;10.980;2022-08-18T22:05:29;30.73;;;27.35;;
29210;SDS011;16250;49.932;10.980;2022-08-18T22:07:56;32.42;;;28.55;;
29210;SDS011;16250;49.932;10.980;2022-08-18T22:10:26;33.03;;;29.40;;
29210;SDS011;16250;49.932;10.980;2022-08-18T22:13:19;39.20;;;30.30;;
29210;SDS011;16250;49.932;10.980;2022-08-18T22:16:19;35.33;;;29.85;;
29210;SDS011;16250;49.932;10.980;2022-08-18T22:18:45;32.63;;;28.65;;
29210;SDS011;16250;49.932;10.980;2022-08-18T22:21:29;32.70;;;27.75;;
29210;SDS011;16250;49.932;10.980;2022-08-18T22:23:57;32.10;;;28.60;;
29210;SDS011;16250;49.932;10.980;2022-08-18T22:31:57;31.60;;;26.65;;
29210;SDS011;16250;49.932;10.980;2022-08-18T22:34:28;34.13;;;27.15;;
29210;SDS011;16250;49.932;10.980;2022-08-18T22:37:00;29.55;;;25.70;;
29210;SDS011;16250;49.932;10.980;2022-08-18T22:39:45;31.65;;;26.80;;
29210;SDS011;16250;49.932;10.980;2022-08-18T22:42:11;32.28;;;25.67;;
29210;SDS011;16250;49.932;10.980;2022-08-18T22:44:39;27.75;;;24.42;;
29210;SDS011;16250;49.932;10.980;2022-08-18T22:47:07;33.22;;;27.35;;
29210;SDS011;16250;49.932;10.980;2022-08-18T22:49:34;31.33;;;26.75;;
29210;SDS011;16250;49.932;10.980;2022-08-18T22:52:01;31.30;;;27.20;;
29210;SDS011;16250;49.932;10.980;2022-08-18T22:54:47;33.33;;;27.45;;
29210;SDS011;16250;49.932;10.980;2022-08-18T22:57:13;31.65;;;26.73;;
29210;SDS011;16250;49.932;10.980;2022-08-18T22:59:39;32.53;;;27.55;;
29210;SDS011;16250;49.932;10.980;2022-08-18T23:02:05;29.40;;;26.40;;
29210;SDS011;16250;49.932;10.980;2022-08-18T23:04:32;33.53;;;26.60;;
29210;SDS011;16250;49.932;10.980;2022-08-18T23:06:58;30.40;;;27.17;;
29210;SDS011;16250;49.932;10.980;2022-08-18T23:09:25;33.13;;;28.52;;
29210;SDS011;16250;49.932;10.980;2022-08-18T23:11:56;34.28;;;29.95;;
29210;SDS011;16250;49.932;10.980;2022-08-18T23:14:23;34.42;;;29.42;;
29210;SDS011;16250;49.932;10.980;2022-08-18T23:16:49;34.65;;;30.92;;
29210;SDS011;16250;49.932;10.980;2022-08-18T23:19:16;35.10;;;29.15;;
29210;SDS011;16250;49.932;10.980;2022-08-18T23:21:43;37.72;;;32.72;;
29210;SDS011;16250;49.932;10.980;2022-08-18T23:24:11;34.78;;;30.88;;
29210;SDS011;16250;49.932;10.980;2022-08-18T23:26:38;36.92;;;31.00;;
29210;SDS011;16250;49.932;10.980;2022-08-18T23:29:04;37.22;;;31.63;;
29210;SDS011;16250;49.932;10.980;2022-08-18T23:31:31;43.75;;;33.63;;
29210;SDS011;16250;49.932;10.980;2022-08-18T23:33:57;47.05;;;36.30;;
29210;SDS011;16250;49.932;10.980;2022-08-18T23:36:25;37.97;;;33.03;;
29210;SDS011;16250;49.932;10.980;2022-08-18T23:38:51;37.78;;;32.35;;
29210;SDS011;16250;49.932;10.980;2022-08-18T23:41:18;39.88;;;33.72;;
29210;SDS011;16250;49.932;10.980;2022-08-18T23:43:45;36.38;;;32.38;;
29210;SDS011;16250;49.932;10.980;2022-08-18T23:46:45;41.25;;;33.97;;
29210;SDS011;16250;49.932;10.980;2022-08-18T23:49:05;38.45;;;33.60;;
29210;SDS011;16250;49.932;10.980;2022-08-18T23:51:38;41.47;;;34.88;;
29210;SDS011;16250;49.932;10.980;2022-08-18T23:54:24;37.03;;;32.25;;
29210;SDS011;16250;49.932;10.980;2022-08-18T23:56:59;45.20;;;35.55;;
29210;SDS011;16250;49.932;10.980;2022-08-18T23:59:25;45.53;;;36.70;;
